sensor_id;sensor_type;location;lat;lon;timestamp;pressure;altitude;pressure_sealevel;temperature;humidity
55301;BME280;58302;51.446;-2.000;2023-12-22T00:00:34;101538.53;;;9.75;100.00
55301;BME280;58302;51.446;-2.000;2023-12-22T00:03:00;101524.13;;;9.75;100.00
55301;BME280;58302;51.446;-2.000;2023-12-22T00:05:26;101491.66;;;9.68;100.00
55301;BME280;58302;51.446;-2.000;2023-12-22T00:07:52;101458.84;;;9.58;100.00
55301;BME280;58302;51.446;-2.000;2023-12-22T00:10:18;101428.28;;;9.51;100.00
55301;BME280;58302;51.446;-2.000;2023-12-22T00:12:44;101386.97;;;9.49;100.00
55301;BME280;58302;51.446;-2.000;2023-12-22T00:15:10;101356.78;;;9.45;100.00
55301;BME280;58302;51.446;-2.000;2023-12-22T00:17:36;101331.19;;;9.41;100.00
55301;BME280;58302;51.446;-2.000;2023-12-22T00:20:02;101290.00;;;9.33;100.00
55301;BME280;58302;51.446;-2.000;2023-12-22T00:22:29;101245.19;;;9.30;100.00
55301;BME280;58302;51.446;-2.000;2023-12-22T00:24:56;101203.09;;;9.28;100.00
55301;BME280;58302;51.446;-2.000;2023-12-22T00:27:22;101176.47;;;9.24;100.00
55301;BME280;58302;51.446;-2.000;2023-12-22T00:29:49;101143.91;;;9.24;100.00
55301;BME280;58302;51.446;-2.000;2023-12-22T00:32:15;101133.88;;;9.25;100.00
55301;BME280;58302;51.446;-2.000;2023-12-22T00:34:41;101111.13;;;9.26;100.00
55301;BME280;58302;51.446;-2.000;2023-12-22T00:37:07;101103.09;;;9.31;100.00
55301;BME280;58302;51.446;-2.000;2023-12-22T00:39:33;101100.72;;;9.35;100.00
55301;BME280;58302;51.446;-2.000;2023-12-22T00:41:59;101098.84;;;9.35;100.00
55301;BME280;58302;51.446;-2.000;2023-12-22T00:44:25;101094.81;;;9.38;100.00
55301;BME280;58302;51.446;-2.000;2023-12-22T00:46:53;101103.84;;;9.43;100.00
55301;BME280;58302;51.446;-2.000;2023-12-22T00:49:19;101100.44;;;9.48;100.00
55301;BME280;58302;51.446;-2.000;2023-12-22T00:51:47;101099.34;;;9.49;100.00
55301;BME280;58302;51.446;-2.000;2023-12-22T00:54:13;101112.69;;;9.50;100.00
55301;BME280;58302;51.446;-2.000;2023-12-22T00:56:39;101111.72;;;9.57;100.00
55301;BME280;58302;51.446;-2.000;2023-12-22T00:59:05;101108.41;;;9.55;100.00
55301;BME280;58302;51.446;-2.000;2023-12-22T01:01:34;101103.91;;;9.60;100.00
55301;BME280;58302;51.446;-2.000;2023-12-22T01:04:00;101117.47;;;9.60;100.00
55301;BME280;58302;51.446;-2.000;2023-12-22T01:06:26;101116.19;;;9.63;100.00
55301;BME280;58302;51.446;-2.000;2023-12-22T01:08:52;101101.78;;;9.62;100.00
55301;BME280;58302;51.446;-2.000;2023-12-22T01:11:19;101100.63;;;9.58;100.00
55301;BME280;58302;51.446;-2.000;2023-12-22T01:13:45;101107.13;;;9.57;100.00
55301;BME280;58302;51.446;-2.000;2023-12-22T01:16:11;101107.94;;;9.58;100.00
55301;BME280;58302;51.446;-2.000;2023-12-22T01:18:37;101102.25;;;9.59;100.00
55301;BME280;58302;51.446;-2.000;2023-12-22T01:21:05;101107.13;;;9.57;100.00
55301;BME280;58302;51.446;-2.000;2023-12-22T01:23:31;101092.72;;;9.57;100.00
55301;BME280;58302;51.446;-2.000;2023-12-22T01:25:57;101081.53;;;9.53;100.00
55301;BME280;58302;51.446;-2.000;2023-12-22T01:28:23;101069.75;;;9.47;100.00
55301;BME280;58302;51.446;-2.000;2023-12-22T01:30:50;101074.25;;;9.42;100.00
55301;BME280;58302;51.446;-2.000;2023-12-22T01:33:16;101053.63;;;9.41;100.00
55301;BME280;58302;51.446;-2.000;2023-12-22T01:35:42;101059.78;;;9.36;100.00
55301;BME280;58302;51.446;-2.000;2023-12-22T01:38:08;101061.94;;;9.34;100.00
55301;BME280;58302;51.446;-2.000;2023-12-22T01:40:34;101061.81;;;9.29;100.00
55301;BME280;58302;51.446;-2.000;2023-12-22T01:43:01;101049.41;;;9.33;100.00
55301;BME280;58302;51.446;-2.000;2023-12-22T01:45:27;101061.69;;;9.36;100.00
55301;BME280;58302;51.446;-2.000;2023-12-22T01:47:53;101050.31;;;9.39;100.00
55301;BME280;58302;51.446;-2.000;2023-12-22T01:50:20;101056.00;;;9.37;100.00
55301;BME280;58302;51.446;-2.000;2023-12-22T01:52:47;101056.00;;;9.37;100.00
55301;BME280;58302;51.446;-2.000;2023-12-22T01:55:14;101058.81;;;9.42;100.00
55301;BME280;58302;51.446;-2.000;2023-12-22T01:57:43;101058.56;;;9.44;100.00
55301;BME280;58302;51.446;-2.000;2023-12-22T02:00:13;101061.16;;;9.50;100.00
55301;BME280;58302;51.446;-2.000;2023-12-22T02:02:40;101051.44;;;9.55;100.00
55301;BME280;58302;51.446;-2.000;2023-12-22T02:05:09;101060.41;;;9.55;100.00
55301;BME280;58302;51.446;-2.000;2023-12-22T02:07:46;101060.91;;;9.52;100.00
55301;BME280;58302;51.446;-2.000;2023-12-22T02:10:12;101046.25;;;9.53;100.00
55301;BME280;58302;51.446;-2.000;2023-12-22T02:12:38;101054.97;;;9.55;100.00
55301;BME280;58302;51.446;-2.000;2023-12-22T02:15:04;101064.53;;;9.58;100.00
55301;BME280;58302;51.446;-2.000;2023-12-22T02:17:59;101067.00;;;9.59;100.00
55301;BME280;58302;51.446;-2.000;2023-12-22T02:20:28;101060.16;;;9.57;100.00
55301;BME280;58302;51.446;-2.000;2023-12-22T02:22:55;101064.78;;;9.56;100.00
55301;BME280;58302;51.446;-2.000;2023-12-22T02:25:21;101063.44;;;9.59;100.00
55301;BME280;58302;51.446;-2.000;2023-12-22T02:27:53;101069.69;;;9.59;100.00
55301;BME280;58302;51.446;-2.000;2023-12-22T02:30:32;101060.75;;;9.59;100.00
55301;BME280;58302;51.446;-2.000;2023-12-22T02:33:03;101075.13;;;9.59;100.00
55301;BME280;58302;51.446;-2.000;2023-12-22T02:35:32;101067.50;;;9.56;100.00
55301;BME280;58302;51.446;-2.000;2023-12-22T02:38:00;101065.25;;;9.53;100.00
55301;BME280;58302;51.446;-2.000;2023-12-22T02:40:27;101062.28;;;9.55;100.00
55301;BME280;58302;51.446;-2.000;2023-12-22T02:42:54;101063.63;;;9.52;100.00
55301;BME280;58302;51.446;-2.000;2023-12-22T02:45:20;101058.03;;;9.59;100.00
55301;BME280;58302;51.446;-2.000;2023-12-22T02:47:46;101042.56;;;9.59;100.00
55301;BME280;58302;51.446;-2.000;2023-12-22T02:50:16;101049.41;;;9.62;100.00
55301;BME280;58302;51.446;-2.000;2023-12-22T02:52:42;101043.22;;;9.66;100.00
55301;BME280;58302;51.446;-2.000;2023-12-22T02:55:08;101038.16;;;9.70;100.00
55301;BME280;58302;51.446;-2.000;2023-12-22T02:57:34;101041.44;;;9.72;100.00
55301;BME280;58302;51.446;-2.000;2023-12-22T03:00:01;101043.66;;;9.75;100.00
55301;BME280;58302;51.446;-2.000;2023-12-22T03:02:27;101037.50;;;9.80;100.00
55301;BME280;58302;51.446;-2.000;2023-12-22T03:04:53;101029.34;;;9.80;100.00
55301;BME280;58302;51.446;-2.000;2023-12-22T03:07:19;101033.16;;;9.79;100.00
55301;BME280;58302;51.446;-2.000;2023-12-22T03:09:45;101034.19;;;9.77;100.00
55301;BME280;58302;51.446;-2.000;2023-12-22T03:12:11;101040.78;;;9.82;100.00
55301;BME280;58302;51.446;-2.000;2023-12-22T03:14:37;101025.31;;;9.82;100.00
55301;BME280;58302;51.446;-2.000;2023-12-22T03:17:04;101031.56;;;9.83;100.00
55301;BME280;58302;51.446;-2.000;2023-12-22T03:19:33;101033.72;;;9.81;100.00
55301;BME280;58302;51.446;-2.000;2023-12-22T03:22:00;101038.31;;;9.80;100.00
55301;BME280;58302;51.446;-2.000;2023-12-22T03:24:26;101037.81;;;9.83;100.00
55301;BME280;58302;51.446;-2.000;2023-12-22T03:26:54;101039.50;;;9.84;100.00
55301;BME280;58302;51.446;-2.000;2023-12-22T03:29:22;101035.09;;;9.83;100.00
55301;BME280;58302;51.446;-2.000;2023-12-22T03:31:48;101037.16;;;9.76;100.00
55301;BME280;58302;51.446;-2.000;2023-12-22T03:34:14;101037.88;;;9.71;100.00
55301;BME280;58302;51.446;-2.000;2023-12-22T03:36:40;101040.59;;;9.71;100.00
55301;BME280;58302;51.446;-2.000;2023-12-22T03:39:06;101041.13;;;9.68;100.00
55301;BME280;58302;51.446;-2.000;2023-12-22T03:41:32;101044.91;;;9.67;100.00
55301;BME280;58302;51.446;-2.000;2023-12-22T03:43:58;101033.88;;;9.74;100.00
55301;BME280;58302;51.446;-2.000;2023-12-22T03:46:24;101031.25;;;9.79;100.00
55301;BME280;58302;51.446;-2.000;2023-12-22T03:48:51;101034.19;;;9.77;100.00
55301;BME280;58302;51.446;-2.000;2023-12-22T03:51:18;101027.28;;;9.70;100.00
55301;BME280;58302;51.446;-2.000;2023-12-22T03:53:44;101032.88;;;9.63;100.00
55301;BME280;58302;51.446;-2.000;2023-12-22T03:56:11;101026.94;;;9.66;100.00
55301;BME280;58302;51.446;-2.000;2023-12-22T03:58:37;101026.31;;;9.76;100.00
55301;BME280;58302;51.446;-2.000;2023-12-22T04:01:03;101018.25;;;9.81;100.00
55301;BME280;58302;51.446;-2.000;2023-12-22T04:03:30;101022.84;;;9.81;100.00
55301;BME280;58302;51.446;-2.000;2023-12-22T04:05:56;101019.66;;;9.84;100.00
55301;BME280;58302;51.446;-2.000;2023-12-22T04:08:22;101002.88;;;9.87;100.00
55301;BME280;58302;51.446;-2.000;2023-12-22T04:10:48;100998.44;;;9.81;100.00
55301;BME280;58302;51.446;-2.000;2023-12-22T04:13:14;101004.84;;;9.74;100.00
55301;BME280;58302;51.446;-2.000;2023-12-22T04:15:40;100984.44;;;9.72;100.00
55301;BME280;58302;51.446;-2.000;2023-12-22T04:18:06;101008.44;;;9.63;100.00
55301;BME280;58302;51.446;-2.000;2023-12-22T04:20:32;101015.34;;;9.54;100.00
55301;BME280;58302;51.446;-2.000;2023-12-22T04:22:58;101007.44;;;9.53;100.00
55301;BME280;58302;51.446;-2.000;2023-12-22T04:25:24;101010.97;;;9.53;100.00
55301;BME280;58302;51.446;-2.000;2023-12-22T04:27:51;101012.53;;;9.49;100.00
55301;BME280;58302;51.446;-2.000;2023-12-22T04:30:18;100994.22;;;9.56;100.00
55301;BME280;58302;51.446;-2.000;2023-12-22T04:32:44;100985.59;;;9.59;100.00
55301;BME280;58302;51.446;-2.000;2023-12-22T04:35:10;100990.28;;;9.64;100.00
55301;BME280;58302;51.446;-2.000;2023-12-22T04:37:37;100989.63;;;9.73;100.00
55301;BME280;58302;51.446;-2.000;2023-12-22T04:40:03;101000.66;;;9.84;100.00
55301;BME280;58302;51.446;-2.000;2023-12-22T04:42:29;101003.94;;;9.86;100.00
55301;BME280;58302;51.446;-2.000;2023-12-22T04:44:55;101007.13;;;9.83;100.00
55301;BME280;58302;51.446;-2.000;2023-12-22T04:47:21;101012.72;;;9.76;100.00
55301;BME280;58302;51.446;-2.000;2023-12-22T04:49:47;101027.81;;;9.84;100.00
55301;BME280;58302;51.446;-2.000;2023-12-22T04:52:13;101030.44;;;9.95;100.00
55301;BME280;58302;51.446;-2.000;2023-12-22T04:54:39;101050.34;;;10.01;100.00
55301;BME280;58302;51.446;-2.000;2023-12-22T04:57:05;101049.63;;;10.06;100.00
55301;BME280;58302;51.446;-2.000;2023-12-22T04:59:31;101072.25;;;10.11;100.00
55301;BME280;58302;51.446;-2.000;2023-12-22T05:01:57;101089.59;;;10.10;100.00
55301;BME280;58302;51.446;-2.000;2023-12-22T05:04:23;101078.50;;;10.12;100.00
55301;BME280;58302;51.446;-2.000;2023-12-22T05:06:49;101089.38;;;10.12;100.00
55301;BME280;58302;51.446;-2.000;2023-12-22T05:09:16;101106.88;;;10.04;100.00
55301;BME280;58302;51.446;-2.000;2023-12-22T05:11:42;101105.78;;;10.05;100.00
55301;BME280;58302;51.446;-2.000;2023-12-22T05:14:09;101107.47;;;10.06;100.00
55301;BME280;58302;51.446;-2.000;2023-12-22T05:16:35;101098.25;;;10.07;100.00
55301;BME280;58302;51.446;-2.000;2023-12-22T05:19:01;101123.25;;;10.09;100.00
55301;BME280;58302;51.446;-2.000;2023-12-22T05:21:27;101124.31;;;10.08;100.00
55301;BME280;58302;51.446;-2.000;2023-12-22T05:23:54;101136.25;;;10.07;100.00
55301;BME280;58302;51.446;-2.000;2023-12-22T05:26:20;101138.97;;;10.07;100.00
55301;BME280;58302;51.446;-2.000;2023-12-22T05:28:47;101134.53;;;10.01;100.00
55301;BME280;58302;51.446;-2.000;2023-12-22T05:31:13;101130.09;;;9.95;100.00
55301;BME280;58302;51.446;-2.000;2023-12-22T05:33:39;101135.72;;;9.93;100.00
55301;BME280;58302;51.446;-2.000;2023-12-22T05:36:05;101131.03;;;9.89;100.00
55301;BME280;58302;51.446;-2.000;2023-12-22T05:38:31;101131.78;;;9.84;100.00
55301;BME280;58302;51.446;-2.000;2023-12-22T05:40:57;101130.88;;;9.79;100.00
55301;BME280;58302;51.446;-2.000;2023-12-22T05:43:23;101117.56;;;9.65;100.00
55301;BME280;58302;51.446;-2.000;2023-12-22T05:45:49;101110.66;;;9.58;100.00
55301;BME280;58302;51.446;-2.000;2023-12-22T05:48:15;101113.13;;;9.59;100.00
55301;BME280;58302;51.446;-2.000;2023-12-22T05:50:41;101099.66;;;9.64;100.00
55301;BME280;58302;51.446;-2.000;2023-12-22T05:53:07;101103.53;;;9.68;100.00
55301;BME280;58302;51.446;-2.000;2023-12-22T05:55:33;101094.06;;;9.71;100.00
55301;BME280;58302;51.446;-2.000;2023-12-22T05:57:59;101104.34;;;9.69;100.00
55301;BME280;58302;51.446;-2.000;2023-12-22T06:00:25;101105.91;;;9.65;100.00
55301;BME280;58302;51.446;-2.000;2023-12-22T06:02:52;101099.91;;;9.63;100.00
55301;BME280;58302;51.446;-2.000;2023-12-22T06:05:18;101102.84;;;9.61;100.00
55301;BME280;58302;51.446;-2.000;2023-12-22T06:07:44;101116.41;;;9.61;100.00
55301;BME280;58302;51.446;-2.000;2023-12-22T06:10:10;101098.56;;;9.65;100.00
55301;BME280;58302;51.446;-2.000;2023-12-22T06:12:36;101117.09;;;9.68;100.00
55301;BME280;58302;51.446;-2.000;2023-12-22T06:15:02;101115.56;;;9.72;100.00
55301;BME280;58302;51.446;-2.000;2023-12-22T06:17:28;101119.91;;;9.73;100.00
55301;BME280;58302;51.446;-2.000;2023-12-22T06:19:54;101113.31;;;9.69;100.00
55301;BME280;58302;51.446;-2.000;2023-12-22T06:22:20;101135.75;;;9.65;100.00
55301;BME280;58302;51.446;-2.000;2023-12-22T06:24:47;101124.06;;;9.64;100.00
55301;BME280;58302;51.446;-2.000;2023-12-22T06:27:13;101126.63;;;9.71;100.00
55301;BME280;58302;51.446;-2.000;2023-12-22T06:29:39;101122.03;;;9.71;100.00
55301;BME280;58302;51.446;-2.000;2023-12-22T06:32:05;101130.88;;;9.79;100.00
55301;BME280;58302;51.446;-2.000;2023-12-22T06:34:31;101139.84;;;9.79;100.00
55301;BME280;58302;51.446;-2.000;2023-12-22T06:36:57;101143.63;;;9.78;100.00
55301;BME280;58302;51.446;-2.000;2023-12-22T06:39:23;101133.59;;;9.79;100.00
55301;BME280;58302;51.446;-2.000;2023-12-22T06:41:49;101132.97;;;9.76;100.00
55301;BME280;58302;51.446;-2.000;2023-12-22T06:44:16;101131.59;;;9.74;100.00
55301;BME280;58302;51.446;-2.000;2023-12-22T06:46:42;101122.28;;;9.70;100.00
55301;BME280;58302;51.446;-2.000;2023-12-22T06:49:08;101117.56;;;9.65;100.00
55301;BME280;58302;51.446;-2.000;2023-12-22T06:51:34;101109.44;;;9.65;100.00
55301;BME280;58302;51.446;-2.000;2023-12-22T06:54:01;101120.88;;;9.67;100.00
55301;BME280;58302;51.446;-2.000;2023-12-22T06:56:30;101112.97;;;9.66;100.00
55301;BME280;58302;51.446;-2.000;2023-12-22T06:58:57;101132.41;;;9.74;100.00
55301;BME280;58302;51.446;-2.000;2023-12-22T07:01:31;101138.91;;;9.73;100.00
55301;BME280;58302;51.446;-2.000;2023-12-22T07:03:58;101140.47;;;9.69;100.00
55301;BME280;58302;51.446;-2.000;2023-12-22T07:06:28;101151.31;;;9.69;100.00
55301;BME280;58302;51.446;-2.000;2023-12-22T07:11:45;101156.41;;;9.66;100.00
55301;BME280;58302;51.446;-2.000;2023-12-22T07:14:11;101139.28;;;9.65;100.00
55301;BME280;58302;51.446;-2.000;2023-12-22T07:16:38;101143.75;;;9.71;100.00
55301;BME280;58302;51.446;-2.000;2023-12-22T07:19:04;101154.03;;;9.69;100.00
55301;BME280;58302;51.446;-2.000;2023-12-22T07:21:30;101162.31;;;9.63;100.00
55301;BME280;58302;51.446;-2.000;2023-12-22T07:23:56;101178.81;;;9.61;100.00
55301;BME280;58302;51.446;-2.000;2023-12-22T07:26:25;101166.31;;;9.60;100.00
55301;BME280;58302;51.446;-2.000;2023-12-22T07:28:53;101161.16;;;9.59;100.00
55301;BME280;58302;51.446;-2.000;2023-12-22T07:31:19;101157.25;;;9.55;100.00
55301;BME280;58302;51.446;-2.000;2023-12-22T07:33:45;101157.75;;;9.52;100.00
55301;BME280;58302;51.446;-2.000;2023-12-22T07:36:11;101167.28;;;9.54;100.00
55301;BME280;58302;51.446;-2.000;2023-12-22T07:38:37;101156.13;;;9.50;100.00
55301;BME280;58302;51.446;-2.000;2023-12-22T07:41:07;101176.25;;;9.55;100.00
55301;BME280;58302;51.446;-2.000;2023-12-22T07:43:33;101165.91;;;9.52;100.00
55301;BME280;58302;51.446;-2.000;2023-12-22T07:45:59;101160.94;;;9.48;100.00
55301;BME280;58302;51.446;-2.000;2023-12-22T07:48:25;101167.22;;;9.37;100.00
55301;BME280;58302;51.446;-2.000;2023-12-22T07:50:51;101165.34;;;9.26;100.00
55301;BME280;58302;51.446;-2.000;2023-12-22T07:53:17;101155.34;;;9.27;100.00
55301;BME280;58302;51.446;-2.000;2023-12-22T07:55:44;101149.59;;;9.23;100.00
55301;BME280;58302;51.446;-2.000;2023-12-22T07:58:10;101156.19;;;9.15;100.00
55301;BME280;58302;51.446;-2.000;2023-12-22T08:00:36;101151.72;;;9.09;100.00
55301;BME280;58302;51.446;-2.000;2023-12-22T08:03:03;101152.78;;;9.08;100.00
55301;BME280;58302;51.446;-2.000;2023-12-22T08:05:29;101159.97;;;9.14;100.00
55301;BME280;58302;51.446;-2.000;2023-12-22T08:07:56;101170.78;;;9.26;100.00
55301;BME280;58302;51.446;-2.000;2023-12-22T08:10:22;101169.00;;;9.32;100.00
55301;BME280;58302;51.446;-2.000;2023-12-22T08:12:48;101172.53;;;9.32;100.00
55301;BME280;58302;51.446;-2.000;2023-12-22T08:15:14;101176.19;;;9.38;100.00
55301;BME280;58302;51.446;-2.000;2023-12-22T08:17:49;101184.91;;;9.40;100.00
55301;BME280;58302;51.446;-2.000;2023-12-22T08:20:19;101184.56;;;9.36;100.00
55301;BME280;58302;51.446;-2.000;2023-12-22T08:22:46;101208.72;;;9.38;100.00
55301;BME280;58302;51.446;-2.000;2023-12-22T08:25:12;101229.16;;;9.40;100.00
55301;BME280;58302;51.446;-2.000;2023-12-22T08:27:39;101229.38;;;9.39;100.00
55301;BME280;58302;51.446;-2.000;2023-12-22T08:30:05;101243.53;;;9.41;100.00
55301;BME280;58302;51.446;-2.000;2023-12-22T08:32:32;101258.16;;;9.40;100.00
55301;BME280;58302;51.446;-2.000;2023-12-22T08:34:58;101249.78;;;9.41;100.00
55301;BME280;58302;51.446;-2.000;2023-12-22T08:37:24;101254.38;;;9.41;100.00
55301;BME280;58302;51.446;-2.000;2023-12-22T08:39:50;101262.75;;;9.39;100.00
55301;BME280;58302;51.446;-2.000;2023-12-22T08:42:17;101280.00;;;9.45;100.00
55301;BME280;58302;51.446;-2.000;2023-12-22T08:44:43;101287.28;;;9.44;100.00
55301;BME280;58302;51.446;-2.000;2023-12-22T08:47:09;101294.38;;;9.45;100.00
55301;BME280;58302;51.446;-2.000;2023-12-22T08:49:35;101306.88;;;9.46;100.00
55301;BME280;58302;51.446;-2.000;2023-12-22T08:52:01;101330.34;;;9.53;100.00
55301;BME280;58302;51.446;-2.000;2023-12-22T08:54:30;101339.69;;;9.57;100.00
55301;BME280;58302;51.446;-2.000;2023-12-22T08:56:56;101351.94;;;9.59;100.00
55301;BME280;58302;51.446;-2.000;2023-12-22T08:59:22;101349.22;;;9.59;100.00
55301;BME280;58302;51.446;-2.000;2023-12-22T09:01:48;101353.00;;;9.58;100.00
55301;BME280;58302;51.446;-2.000;2023-12-22T09:04:14;101358.69;;;9.57;100.00
55301;BME280;58302;51.446;-2.000;2023-12-22T09:06:42;101368.91;;;9.55;100.00
55301;BME280;58302;51.446;-2.000;2023-12-22T09:09:08;101375.16;;;9.55;100.00
55301;BME280;58302;51.446;-2.000;2023-12-22T09:11:35;101391.00;;;9.58;100.00
55301;BME280;58302;51.446;-2.000;2023-12-22T09:14:01;101411.19;;;9.62;100.00
55301;BME280;58302;51.446;-2.000;2023-12-22T09:16:27;101420.47;;;9.66;100.00
55301;BME280;58302;51.446;-2.000;2023-12-22T09:18:53;101431.69;;;9.70;100.00
55301;BME280;58302;51.446;-2.000;2023-12-22T09:21:19;101452.59;;;9.69;100.00
55301;BME280;58302;51.446;-2.000;2023-12-22T09:23:46;101466.75;;;9.71;100.00
55301;BME280;58302;51.446;-2.000;2023-12-22T09:26:13;101495.31;;;9.74;100.00
55301;BME280;58302;51.446;-2.000;2023-12-22T09:28:40;101499.44;;;9.76;100.00
55301;BME280;58302;51.446;-2.000;2023-12-22T09:31:09;101523.44;;;9.80;100.00
55301;BME280;58302;51.446;-2.000;2023-12-22T09:33:35;101522.38;;;9.81;100.00
55301;BME280;58302;51.446;-2.000;2023-12-22T09:36:01;101548.69;;;9.80;100.00
55301;BME280;58302;51.446;-2.000;2023-12-22T09:38:28;101557.53;;;9.75;100.00
55301;BME280;58302;51.446;-2.000;2023-12-22T09:40:55;101550.41;;;9.63;100.00
55301;BME280;58302;51.446;-2.000;2023-12-22T09:43:22;101530.69;;;9.56;100.00
55301;BME280;58302;51.446;-2.000;2023-12-22T09:45:51;101509.69;;;9.51;100.00
55301;BME280;58302;51.446;-2.000;2023-12-22T09:48:18;101496.13;;;9.51;100.00
55301;BME280;58302;51.446;-2.000;2023-12-22T09:50:53;101482.44;;;9.58;100.00
55301;BME280;58302;51.446;-2.000;2023-12-22T09:53:20;101477.13;;;9.63;100.00
55301;BME280;58302;51.446;-2.000;2023-12-22T09:55:47;101482.78;;;9.61;100.00
55301;BME280;58302;51.446;-2.000;2023-12-22T09:58:14;101472.53;;;9.63;100.00
55301;BME280;58302;51.446;-2.000;2023-12-22T10:00:43;101471.22;;;9.66;100.00
55301;BME280;58302;51.446;-2.000;2023-12-22T10:03:11;101501.69;;;9.68;100.00
55301;BME280;58302;51.446;-2.000;2023-12-22T10:05:39;101502.84;;;9.72;100.00
55301;BME280;58302;51.446;-2.000;2023-12-22T10:08:06;101503.47;;;9.74;100.00
55301;BME280;58302;51.446;-2.000;2023-12-22T10:10:38;101516.69;;;9.82;100.00
55301;BME280;58302;51.446;-2.000;2023-12-22T10:13:05;101536.75;;;9.81;100.00
55301;BME280;58302;51.446;-2.000;2023-12-22T10:15:37;101546.06;;;9.62;100.00
55301;BME280;58302;51.446;-2.000;2023-12-22T10:18:05;101502.41;;;9.33;100.00
55301;BME280;58302;51.446;-2.000;2023-12-22T10:20:32;101461.41;;;9.11;100.00
55301;BME280;58302;51.446;-2.000;2023-12-22T10:22:58;101434.88;;;9.02;100.00
55301;BME280;58302;51.446;-2.000;2023-12-22T10:25:28;101396.19;;;8.94;100.00
55301;BME280;58302;51.446;-2.000;2023-12-22T10:28:00;101380.38;;;8.91;100.00
55301;BME280;58302;51.446;-2.000;2023-12-22T10:30:28;101375.56;;;8.93;100.00
55301;BME280;58302;51.446;-2.000;2023-12-22T10:32:54;101357.78;;;8.97;100.00
55301;BME280;58302;51.446;-2.000;2023-12-22T10:35:21;101347.31;;;9.01;100.00
55301;BME280;58302;51.446;-2.000;2023-12-22T10:37:48;101344.00;;;9.11;100.00
55301;BME280;58302;51.446;-2.000;2023-12-22T10:40:18;101342.22;;;9.16;100.00
55301;BME280;58302;51.446;-2.000;2023-12-22T10:42:45;101347.44;;;9.18;100.00
55301;BME280;58302;51.446;-2.000;2023-12-22T10:45:11;101339.06;;;9.19;100.00
55301;BME280;58302;51.446;-2.000;2023-12-22T10:47:40;101341.78;;;9.19;100.00
55301;BME280;58302;51.446;-2.000;2023-12-22T10:50:07;101356.97;;;9.20;100.00
55301;BME280;58302;51.446;-2.000;2023-12-22T10:52:34;101360.88;;;9.24;100.00
55301;BME280;58302;51.446;-2.000;2023-12-22T10:55:00;101363.72;;;9.30;100.00
55301;BME280;58302;51.446;-2.000;2023-12-22T10:57:31;101375.28;;;9.37;100.00
55301;BME280;58302;51.446;-2.000;2023-12-22T11:00:03;101383.19;;;9.50;100.00
55301;BME280;58302;51.446;-2.000;2023-12-22T11:02:32;101401.28;;;9.56;100.00
55301;BME280;58302;51.446;-2.000;2023-12-22T11:05:04;101405.75;;;9.62;100.00
55301;BME280;58302;51.446;-2.000;2023-12-22T11:07:35;101414.22;;;9.66;100.00
55301;BME280;58302;51.446;-2.000;2023-12-22T11:10:04;101432.66;;;9.75;100.00
55301;BME280;58302;51.446;-2.000;2023-12-22T11:12:35;101427.31;;;10.16;100.00
55301;BME280;58302;51.446;-2.000;2023-12-22T11:15:03;101450.34;;;10.37;100.00
55301;BME280;58302;51.446;-2.000;2023-12-22T11:17:33;101503.03;;;10.36;100.00
55301;BME280;58302;51.446;-2.000;2023-12-22T11:20:00;101532.34;;;10.34;100.00
55301;BME280;58302;51.446;-2.000;2023-12-22T11:22:27;101568.84;;;10.26;100.00
55301;BME280;58302;51.446;-2.000;2023-12-22T11:24:55;101606.41;;;10.29;100.00
55301;BME280;58302;51.446;-2.000;2023-12-22T11:27:23;101654.84;;;10.32;100.00
55301;BME280;58302;51.446;-2.000;2023-12-22T11:29:51;101685.94;;;10.36;100.00
55301;BME280;58302;51.446;-2.000;2023-12-22T11:32:19;101712.78;;;10.44;100.00
55301;BME280;58302;51.446;-2.000;2023-12-22T11:34:48;101743.03;;;10.60;100.00
55301;BME280;58302;51.446;-2.000;2023-12-22T11:37:15;101786.66;;;10.53;100.00
55301;BME280;58302;51.446;-2.000;2023-12-22T11:39:42;101805.22;;;10.56;100.00
55301;BME280;58302;51.446;-2.000;2023-12-22T11:42:14;101845.41;;;10.66;100.00
55301;BME280;58302;51.446;-2.000;2023-12-22T11:44:41;101855.84;;;10.69;100.00
55301;BME280;58302;51.446;-2.000;2023-12-22T11:47:09;101875.72;;;10.69;100.00
55301;BME280;58302;51.446;-2.000;2023-12-22T11:49:37;101906.09;;;10.66;100.00
55301;BME280;58302;51.446;-2.000;2023-12-22T11:54:50;101954.41;;;10.64;100.00
55301;BME280;58302;51.446;-2.000;2023-12-22T11:57:30;101980.91;;;10.69;100.00
55301;BME280;58302;51.446;-2.000;2023-12-22T11:59:58;101970.28;;;10.67;100.00
55301;BME280;58302;51.446;-2.000;2023-12-22T12:02:27;102004.19;;;10.65;100.00
55301;BME280;58302;51.446;-2.000;2023-12-22T12:04:58;101992.84;;;10.68;100.00
55301;BME280;58302;51.446;-2.000;2023-12-22T12:07:45;102015.75;;;10.78;100.00
55301;BME280;58302;51.446;-2.000;2023-12-22T12:10:11;102030.56;;;10.82;100.00
55301;BME280;58302;51.446;-2.000;2023-12-22T12:12:38;102023.44;;;10.81;100.00
55301;BME280;58302;51.446;-2.000;2023-12-22T12:15:17;102048.53;;;10.84;100.00
55301;BME280;58302;51.446;-2.000;2023-12-22T12:17:43;102055.78;;;10.71;100.00
55301;BME280;58302;51.446;-2.000;2023-12-22T12:20:10;102073.13;;;10.52;100.00
55301;BME280;58302;51.446;-2.000;2023-12-22T12:22:37;102079.69;;;10.44;100.00
55301;BME280;58302;51.446;-2.000;2023-12-22T12:25:08;102083.09;;;10.40;100.00
55301;BME280;58302;51.446;-2.000;2023-12-22T12:27:36;102096.25;;;10.61;100.00
55301;BME280;58302;51.446;-2.000;2023-12-22T12:30:07;102121.25;;;10.70;100.00
55301;BME280;58302;51.446;-2.000;2023-12-22T12:32:36;102134.84;;;10.70;100.00
55301;BME280;58302;51.446;-2.000;2023-12-22T12:35:02;102130.47;;;10.69;100.00
55301;BME280;58302;51.446;-2.000;2023-12-22T12:37:30;102139.91;;;10.66;100.00
55301;BME280;58302;51.446;-2.000;2023-12-22T12:39:58;102152.53;;;10.61;100.00
55301;BME280;58302;51.446;-2.000;2023-12-22T12:42:28;102156.81;;;10.50;100.00